Time,TemperatureF,DewpointF,PressureIn,WindDirection,WindDirectionDegrees,WindSpeedMPH,WindSpeedGustMPH,Humidity,HourlyPrecipIn,Conditions,Clouds,dailyrainin,SoftwareType,DateUTC
2013-03-06 00:00:00,28.2,24.3,30.00,North,355,8.0,14.0,85,0.00,,OVC014,0.00,VWS V14.01,2013-03-06 06:00:00,
2013-03-06 00:05:00,28.0,24.1,30.03,NW,319,6.0,22.0,85,0.00,,FEW070,0.00,VWS V14.01,2013-03-06 06:05:00,
2013-03-06 00:06:00,28.1,24.2,30.00,North,355,7.0,16.0,85,0.00,,OVC014,0.00,VWS V14.01,2013-03-06 06:06:00,
2013-03-06 00:10:00,28.0,24.1,30.03,NNW,341,15.0,18.0,85,0.00,,FEW070,0.00,VWS V14.01,2013-03-06 06:10:00,
2013-03-06 00:11:00,28.0,24.1,30.00,NNE,24,15.0,17.0,85,0.00,,OVC014,0.00,VWS V14.01,2013-03-06 06:11:00,
2013-03-06 00:15:00,28.0,24.1,30.03,NW,319,11.0,14.0,85,0.00,,FEW070,0.00,VWS V14.01,2013-03-06 06:15:00,
2013-03-06 00:16:00,28.0,24.1,30.00,NW,310,12.0,16.0,85,0.00,,OVC014,0.00,VWS V14.01,2013-03-06 06:16:00,
2013-03-06 00:20:00,28.0,24.1,30.03,NW,323,9.0,14.0,85,0.00,,FEW070,0.00,VWS V14.01,2013-03-06 06:20:00,
2013-03-06 00:21:00,28.0,24.1,30.00,NNW,335,10.0,17.0,85,0.00,,OVC014,0.00,VWS V14.01,2013-03-06 06:21:00,
2013-03-06 00:25:00,27.9,24.0,30.04,NW,315,12.0,16.0,85,0.00,,FEW070,0.00,VWS V14.01,2013-03-06 06:25:00,
2013-03-06 00:26:00,28.0,24.1,30.00,NNW,329,12.0,17.0,85,0.00,,OVC014,0.00,VWS V14.01,2013-03-06 06:26:00,
2013-03-06 00:30:00,27.9,24.0,30.04,NW,311,12.0,17.0,85,0.00,,FEW070,0.00,VWS V14.01,2013-03-06 06:30:00,
2013-03-06 00:31:00,28.0,24.1,30.01,NNW,338,18.0,19.0,85,0.00,,OVC014,0.00,VWS V14.01,2013-03-06 06:31:00,
2013-03-06 00:35:00,27.9,24.0,30.04,NW,314,14.0,19.0,85,0.00,,FEW070,0.00,VWS V14.01,2013-03-06 06:35:00,
2013-03-06 00:36:00,27.9,24.0,30.01,NNW,346,10.0,15.0,85,0.00,,OVC014,0.00,VWS V14.01,2013-03-06 06:36:00,
2013-03-06 00:40:00,27.9,24.0,30.04,NW,322,15.0,16.0,85,0.00,,FEW070,0.00,VWS V14.01,2013-03-06 06:40:00,
2013-03-06 00:41:00,27.9,24.0,30.01,NW,309,13.0,17.0,85,0.00,,OVC014,0.00,VWS V14.01,2013-03-06 06:41:00,
2013-03-06 00:45:00,27.8,23.9,30.04,NNW,339,13.0,16.0,85,0.00,,FEW070,0.00,VWS V14.01,2013-03-06 06:45:00,
2013-03-06 00:46:00,28.1,24.2,30.01,NW,315,9.0,17.0,85,0.00,,OVC014,0.00,VWS V14.01,2013-03-06 06:46:00,
2013-03-06 00:50:00,27.8,23.9,30.04,WNW,294,13.0,18.0,85,0.00,,FEW070,0.00,VWS V14.01,2013-03-06 06:50:00,
2013-03-06 00:51:00,28.1,24.2,30.02,NW,321,13.0,19.0,85,0.00,,OVC014,0.00,VWS V14.01,2013-03-06 06:51:00,
2013-03-06 00:55:00,27.8,23.9,30.04,NNW,329,11.0,16.0,85,0.00,,FEW070,0.00,VWS V14.01,2013-03-06 06:55:00,
2013-03-06 00:56:00,28.1,24.2,30.02,North,5,11.0,21.0,85,0.00,,OVC014,0.00,VWS V14.01,2013-03-06 06:56:00,
2013-03-06 01:00:00,27.8,23.9,30.04,NNW,342,10.0,16.0,85,0.00,,FEW070,0.00,VWS V14.01,2013-03-06 07:00:00,
2013-03-06 01:01:00,28.0,24.1,30.03,NNW,333,22.0,22.0,85,0.00,,OVC014,0.00,VWS V14.01,2013-03-06 07:01:00,
2013-03-06 01:05:00,27.8,23.9,30.04,NNW,327,7.0,18.0,85,0.00,,FEW070,0.00,VWS V14.01,2013-03-06 07:05:00,
2013-03-06 01:06:00,28.0,24.1,30.03,NNW,346,5.0,16.0,85,0.00,,OVC014,0.00,VWS V14.01,2013-03-06 07:06:00,
2013-03-06 01:10:00,27.8,23.9,30.04,NNW,338,13.0,15.0,85,0.00,,FEW070,0.00,VWS V14.01,2013-03-06 07:10:00,
2013-03-06 01:11:00,27.9,24.0,30.03,NW,321,4.0,18.0,85,0.00,,OVC014,0.00,VWS V14.01,2013-03-06 07:11:00,
2013-03-06 01:15:00,27.7,23.8,30.04,NNW,334,3.0,15.0,85,0.00,,FEW250,0.00,VWS V14.01,2013-03-06 07:15:00,
2013-03-06 01:16:00,28.0,24.1,30.03,NNW,335,9.0,14.0,85,0.00,,OVC014,0.00,VWS V14.01,2013-03-06 07:16:00,
2013-03-06 01:20:00,27.7,23.8,30.04,North,351,9.0,17.0,85,0.00,,FEW070,0.00,VWS V14.01,2013-03-06 07:20:00,
2013-03-06 01:21:00,27.9,24.0,30.04,NW,307,11.0,16.0,85,0.00,,OVC014,0.00,VWS V14.01,2013-03-06 07:21:00,
2013-03-06 01:25:00,27.7,23.8,30.04,WNW,302,7.0,16.0,85,0.00,,FEW070,0.00,VWS V14.01,2013-03-06 07:25:00,
2013-03-06 01:26:00,27.9,24.0,30.04,NW,316,8.0,16.0,85,0.00,,OVC014,0.00,VWS V14.01,2013-03-06 07:26:00,
2013-03-06 01:30:00,27.7,23.8,30.04,NW,322,9.0,18.0,85,0.00,,FEW070,0.00,VWS V14.01,2013-03-06 07:30:00,
2013-03-06 01:31:00,27.9,24.0,30.04,NNW,333,17.0,17.0,85,0.00,,OVC014,0.00,VWS V14.01,2013-03-06 07:31:00,
2013-03-06 01:35:00,27.6,23.7,30.05,WNW,300,7.0,17.0,85,0.00,,FEW070,0.00,VWS V14.01,2013-03-06 07:35:00,
2013-03-06 01:36:00,27.9,24.0,30.04,WNW,300,13.0,19.0,85,0.00,,OVC014,0.00,VWS V14.01,2013-03-06 07:36:00,
2013-03-06 01:40:00,27.6,23.7,30.05,NW,323,7.0,14.0,85,0.00,,FEW070,0.00,VWS V14.01,2013-03-06 07:40:00,
2013-03-06 01:42:00,27.8,23.9,30.04,NW,323,7.0,16.0,85,0.00,,OVC014,0.00,VWS V14.01,2013-03-06 07:42:00,
2013-03-06 01:45:00,27.6,23.7,30.05,NNW,336,9.0,18.0,85,0.00,,FEW070,0.00,VWS V14.01,2013-03-06 07:45:00,
2013-03-06 01:47:00,27.8,23.9,30.04,NNW,334,16.0,18.0,85,0.00,,OVC014,0.00,VWS V14.01,2013-03-06 07:47:00,
2013-03-06 01:50:00,27.6,23.7,30.05,WNW,298,6.0,15.0,85,0.00,,FEW070,0.00,VWS V14.01,2013-03-06 07:50:00,
2013-03-06 01:52:00,27.8,23.9,30.04,WNW,288,10.0,15.0,85,0.00,,OVC014,0.00,VWS V14.01,2013-03-06 07:52:00,
2013-03-06 01:55:00,27.6,23.7,30.05,NNW,336,7.0,16.0,85,0.00,,FEW070,0.00,VWS V14.01,2013-03-06 07:55:00,
2013-03-06 01:57:00,27.8,23.9,30.04,NW,323,14.0,16.0,85,0.00,,OVC014,0.00,VWS V14.01,2013-03-06 07:57:00,
2013-03-06 02:00:00,27.6,23.7,30.06,WNW,303,11.0,16.0,85,0.00,,FEW070,0.00,VWS V14.01,2013-03-06 08:00:00,
2013-03-06 02:02:00,27.8,23.9,30.04,NW,322,14.0,18.0,85,0.00,,OVC014,0.00,VWS V14.01,2013-03-06 08:02:00,
2013-03-06 02:05:00,27.5,23.9,30.06,NW,323,5.0,18.0,86,0.00,,FEW070,0.00,VWS V14.01,2013-03-06 08:05:00,
2013-03-06 02:07:00,27.8,23.9,30.04,NW,313,12.0,14.0,85,0.00,,OVC014,0.00,VWS V14.01,2013-03-06 08:07:00,
2013-03-06 02:10:00,27.5,23.9,30.06,WNW,302,13.0,18.0,86,0.00,,FEW070,0.00,VWS V14.01,2013-03-06 08:10:00,
2013-03-06 02:12:00,27.7,23.8,30.04,NNW,332,5.0,15.0,85,0.00,,OVC014,0.00,VWS V14.01,2013-03-06 08:12:00,
2013-03-06 02:15:00,27.3,23.7,30.06,WNW,282,10.0,20.0,86,0.00,,FEW070,0.00,VWS V14.01,2013-03-06 08:15:00,
2013-03-06 02:17:00,27.7,23.8,30.04,NW,318,9.0,17.0,85,0.00,,OVC014,0.00,VWS V14.01,2013-03-06 08:17:00,
2013-03-06 02:20:00,27.3,23.7,30.06,WNW,300,10.0,19.0,86,0.00,,FEW070,0.00,VWS V14.01,2013-03-06 08:20:00,
2013-03-06 02:22:00,27.7,23.8,30.04,NNW,345,7.0,16.0,85,0.00,,OVC014,0.00,VWS V14.01,2013-03-06 08:22:00,
2013-03-06 02:25:00,27.2,23.6,30.07,NNW,338,13.0,16.0,86,0.00,,FEW070,0.00,VWS V14.01,2013-03-06 08:25:00,
2013-03-06 02:27:00,27.7,23.8,30.04,NNW,328,7.0,18.0,85,0.00,,OVC014,0.00,VWS V14.01,2013-03-06 08:27:00,
2013-03-06 02:30:00,27.3,23.7,30.07,West,261,0.0,18.0,86,0.00,,FEW070,0.00,VWS V14.01,2013-03-06 08:30:00,
2013-03-06 02:32:00,27.6,23.7,30.04,NW,326,10.0,17.0,85,0.00,,OVC014,0.00,VWS V14.01,2013-03-06 08:32:00,
2013-03-06 02:35:00,27.3,23.7,30.07,NNW,340,12.0,17.0,86,0.00,,FEW070,0.00,VWS V14.01,2013-03-06 08:35:00,
2013-03-06 02:37:00,27.6,23.7,30.05,WNW,299,6.0,14.0,85,0.00,,OVC014,0.00,VWS V14.01,2013-03-06 08:37:00,
2013-03-06 02:40:00,27.3,23.7,30.07,NNW,328,10.0,16.0,86,0.00,,FEW070,0.00,VWS V14.01,2013-03-06 08:40:00,
2013-03-06 02:42:00,27.6,23.7,30.05,NW,322,11.0,15.0,85,0.00,,OVC014,0.00,VWS V14.01,2013-03-06 08:42:00,
2013-03-06 02:45:00,27.4,23.8,30.07,NNW,343,13.0,19.0,86,0.00,,FEW070,0.00,VWS V14.01,2013-03-06 08:45:00,
2013-03-06 02:47:00,27.6,23.7,30.05,NNW,340,9.0,16.0,85,0.00,,OVC014,0.00,VWS V14.01,2013-03-06 08:47:00,
2013-03-06 02:50:00,27.4,24.0,30.08,NW,322,5.0,14.0,87,0.00,,FEW070,0.00,VWS V14.01,2013-03-06 08:50:00,
2013-03-06 02:52:00,27.6,23.7,30.05,NW,317,9.0,18.0,85,0.00,,OVC014,0.00,VWS V14.01,2013-03-06 08:52:00,
2013-03-06 02:55:00,27.4,24.0,30.08,NW,313,6.0,14.0,87,0.00,,FEW070,0.00,VWS V14.01,2013-03-06 08:55:00,
2013-03-06 02:57:00,27.6,23.7,30.06,NW,322,9.0,16.0,85,0.00,,OVC014,0.00,VWS V14.01,2013-03-06 08:57:00,
2013-03-06 03:00:00,27.4,23.8,30.08,NW,314,0.0,16.0,86,0.00,,FEW070,0.00,VWS V14.01,2013-03-06 09:00:00,
2013-03-06 03:02:00,27.5,23.6,30.06,WNW,288,10.0,18.0,85,0.00,,,0.00,VWS V14.01,2013-03-06 09:02:00,
2013-03-06 03:05:00,27.5,24.1,30.08,NW,317,7.0,15.0,87,0.00,,FEW070,0.00,VWS V14.01,2013-03-06 09:05:00,
2013-03-06 03:07:00,27.5,23.9,30.06,NW,314,10.0,18.0,86,0.00,,,0.00,VWS V14.01,2013-03-06 09:07:00,
2013-03-06 03:10:00,27.5,23.9,30.08,North,355,9.0,15.0,86,0.00,,FEW070,0.00,VWS V14.01,2013-03-06 09:10:00,
2013-03-06 03:12:00,27.4,23.8,30.06,NNW,346,11.0,20.0,86,0.00,,,0.00,VWS V14.01,2013-03-06 09:12:00,
2013-03-06 03:15:00,27.4,24.0,30.09,NNW,344,10.0,17.0,87,0.00,,FEW070,0.00,VWS V14.01,2013-03-06 09:15:00,
2013-03-06 03:18:00,27.3,23.7,30.06,WNW,300,8.0,19.0,86,0.00,,,0.00,VWS V14.01,2013-03-06 09:18:00,
2013-03-06 03:20:00,27.5,24.1,30.09,NNW,331,6.0,14.0,87,0.00,,FEW070,0.00,VWS V14.01,2013-03-06 09:20:00,
2013-03-06 03:23:00,27.3,23.7,30.07,NW,325,9.0,19.0,86,0.00,,,0.00,VWS V14.01,2013-03-06 09:23:00,
2013-03-06 03:25:00,27.5,24.1,30.09,WNW,292,7.0,16.0,87,0.00,,FEW070,0.00,VWS V14.01,2013-03-06 09:25:00,
2013-03-06 03:28:00,27.2,23.6,30.07,WNW,287,9.0,16.0,86,0.00,,,0.00,VWS V14.01,2013-03-06 09:28:00,
2013-03-06 03:30:00,27.5,24.1,30.10,NW,316,8.0,17.0,87,0.00,,FEW070,0.00,VWS V14.01,2013-03-06 09:30:00,
2013-03-06 03:33:00,27.3,23.7,30.07,NNW,335,9.0,16.0,86,0.00,,,0.00,VWS V14.01,2013-03-06 09:33:00,
2013-03-06 03:35:00,27.5,24.1,30.10,NW,321,10.0,14.0,87,0.00,,FEW070,0.00,VWS V14.01,2013-03-06 09:35:00,
2013-03-06 03:38:00,27.3,23.7,30.07,NW,315,4.0,17.0,86,0.00,,,0.00,VWS V14.01,2013-03-06 09:38:00,
2013-03-06 03:40:00,27.4,24.0,30.10,NW,321,15.0,17.0,87,0.00,,FEW070,0.00,VWS V14.01,2013-03-06 09:40:00,
2013-03-06 03:43:00,27.3,23.7,30.07,NW,304,8.0,19.0,86,0.00,,,0.00,VWS V14.01,2013-03-06 09:43:00,
2013-03-06 03:45:00,27.4,24.0,30.10,NW,317,4.0,19.0,87,0.00,,FEW070,0.00,VWS V14.01,2013-03-06 09:45:00,
2013-03-06 03:48:00,27.4,23.8,30.08,NW,306,6.0,15.0,86,0.00,,,0.00,VWS V14.01,2013-03-06 09:48:00,
2013-03-06 03:50:00,27.5,24.1,30.11,NW,312,10.0,17.0,87,0.00,,FEW070,0.00,VWS V14.01,2013-03-06 09:50:00,
2013-03-06 03:53:00,27.4,24.0,30.08,WNW,303,11.0,14.0,87,0.00,,,0.00,VWS V14.01,2013-03-06 09:53:00,
2013-03-06 03:55:00,27.5,24.1,30.11,NNW,343,7.0,17.0,87,0.00,,FEW070,0.00,VWS V14.01,2013-03-06 09:55:00,
2013-03-06 03:58:00,27.4,24.0,30.08,NNW,330,5.0,19.0,87,0.00,,,0.00,VWS V14.01,2013-03-06 09:58:00,
2013-03-06 04:00:00,27.6,24.2,30.11,WNW,298,9.0,15.0,87,0.00,,FEW070,0.00,VWS V14.01,2013-03-06 10:00:00,
2013-03-06 04:03:00,27.5,24.1,30.08,NW,321,7.0,13.0,87,0.00,,OVC014,0.00,VWS V14.01,2013-03-06 10:03:00,
2013-03-06 04:05:00,27.6,24.2,30.11,NW,309,10.0,18.0,87,0.00,,FEW070,0.00,VWS V14.01,2013-03-06 10:05:00,
2013-03-06 04:08:00,27.5,23.9,30.08,NW,319,11.0,15.0,86,0.00,,OVC014,0.00,VWS V14.01,2013-03-06 10:08:00,
2013-03-06 04:10:00,27.6,24.2,30.11,NW,314,2.0,14.0,87,0.00,,FEW070,0.00,VWS V14.01,2013-03-06 10:10:00,
2013-03-06 04:13:00,27.4,24.0,30.09,WNW,302,13.0,15.0,87,0.00,,OVC014,0.00,VWS V14.01,2013-03-06 10:13:00,
2013-03-06 04:15:00,27.6,24.2,30.11,WNW,296,10.0,17.0,87,0.00,,FEW070,0.00,VWS V14.01,2013-03-06 10:15:00,
2013-03-06 04:18:00,27.5,24.1,30.09,NW,318,9.0,14.0,87,0.00,,OVC014,0.00,VWS V14.01,2013-03-06 10:18:00,
2013-03-06 04:20:00,27.6,24.2,30.11,NW,306,9.0,18.0,87,0.00,,FEW070,0.00,VWS V14.01,2013-03-06 10:20:00,
2013-03-06 04:23:00,27.5,24.1,30.09,NNW,333,12.0,16.0,87,0.00,,OVC014,0.00,VWS V14.01,2013-03-06 10:23:00,
2013-03-06 04:25:00,27.6,24.5,30.11,NNW,327,14.0,17.0,88,0.00,,FEW070,0.00,VWS V14.01,2013-03-06 10:25:00,
2013-03-06 04:28:00,27.5,24.1,30.10,West,277,7.0,17.0,87,0.00,,OVC014,0.00,VWS V14.01,2013-03-06 10:28:00,
2013-03-06 04:30:00,27.6,24.5,30.12,NW,323,11.0,16.0,88,0.00,,FEW070,0.00,VWS V14.01,2013-03-06 10:30:00,
2013-03-06 04:33:00,27.5,24.1,30.10,NNW,327,12.0,15.0,87,0.00,,OVC014,0.00,VWS V14.01,2013-03-06 10:33:00,
2013-03-06 04:35:00,27.7,24.6,30.12,NW,321,13.0,18.0,88,0.00,,FEW070,0.00,VWS V14.01,2013-03-06 10:35:00,
2013-03-06 04:39:00,27.5,24.1,30.10,NW,306,6.0,17.0,87,0.00,,OVC014,0.00,VWS V14.01,2013-03-06 10:39:00,
2013-03-06 04:40:00,27.7,24.6,30.12,WNW,302,13.0,15.0,88,0.00,,FEW070,0.00,VWS V14.01,2013-03-06 10:40:00,
2013-03-06 04:44:00,27.5,24.1,30.10,NW,309,7.0,19.0,87,0.00,,OVC014,0.00,VWS V14.01,2013-03-06 10:44:00,
2013-03-06 04:45:00,27.8,24.4,30.12,NNW,333,13.0,18.0,87,0.00,,FEW070,0.00,VWS V14.01,2013-03-06 10:45:00,
2013-03-06 04:49:00,27.5,24.1,30.11,NW,312,12.0,17.0,87,0.00,,OVC014,0.00,VWS V14.01,2013-03-06 10:49:00,
2013-03-06 04:50:00,27.8,24.4,30.12,NNW,331,9.0,15.0,87,0.00,,FEW070,0.00,VWS V14.01,2013-03-06 10:50:00,
2013-03-06 04:54:00,27.5,24.1,30.11,NNW,346,11.0,17.0,87,0.00,,OVC014,0.00,VWS V14.01,2013-03-06 10:54:00,
2013-03-06 04:55:00,27.9,24.5,30.12,NW,320,10.0,14.0,87,0.00,,FEW070,0.00,VWS V14.01,2013-03-06 10:55:00,
2013-03-06 04:59:00,27.6,24.2,30.11,NNW,330,7.0,15.0,87,0.00,,OVC014,0.00,VWS V14.01,2013-03-06 10:59:00,
2013-03-06 05:00:00,27.9,24.5,30.12,NW,322,8.0,12.0,87,0.00,,FEW070,0.00,VWS V14.01,2013-03-06 11:00:00,
2013-03-06 05:04:00,27.6,24.2,30.11,NW,319,14.0,18.0,87,0.00,,OVC016,0.00,VWS V14.01,2013-03-06 11:04:00,
2013-03-06 05:05:00,27.9,24.5,30.12,NW,325,5.0,10.0,87,0.00,,FEW070,0.00,VWS V14.01,2013-03-06 11:05:00,
2013-03-06 05:09:00,27.6,24.2,30.11,WNW,290,0.0,14.0,87,0.00,,OVC016,0.00,VWS V14.01,2013-03-06 11:09:00,
2013-03-06 05:10:00,27.9,24.5,30.12,NNW,341,5.0,9.0,87,0.00,,FEW070,0.00,VWS V14.01,2013-03-06 11:10:00,
2013-03-06 05:14:00,27.6,24.2,30.11,NW,313,12.0,17.0,87,0.00,,OVC016,0.00,VWS V14.01,2013-03-06 11:14:00,
2013-03-06 05:15:00,28.0,24.6,30.12,NW,309,8.0,13.0,87,0.00,,FEW070,0.00,VWS V14.01,2013-03-06 11:15:00,
2013-03-06 05:19:00,27.6,24.2,30.11,NW,306,9.0,18.0,87,0.00,,OVC016,0.00,VWS V14.01,2013-03-06 11:19:00,
2013-03-06 05:20:00,28.1,24.7,30.12,NW,325,2.0,13.0,87,0.00,,FEW070,0.00,VWS V14.01,2013-03-06 11:20:00,
2013-03-06 05:24:00,27.6,24.5,30.11,NNW,327,14.0,17.0,88,0.00,,OVC016,0.00,VWS V14.01,2013-03-06 11:24:00,
2013-03-06 05:25:00,28.1,25.0,30.12,NW,310,8.0,12.0,88,0.00,,FEW070,0.00,VWS V14.01,2013-03-06 11:25:00,
2013-03-06 05:29:00,27.6,24.5,30.12,NW,323,11.0,16.0,88,0.00,,OVC016,0.00,VWS V14.01,2013-03-06 11:29:00,
2013-03-06 05:30:00,28.3,24.9,30.12,NW,312,8.0,10.0,87,0.00,,FEW070,0.00,VWS V14.01,2013-03-06 11:30:00,
2013-03-06 05:34:00,27.7,24.6,30.12,NW,321,13.0,18.0,88,0.00,,OVC016,0.00,VWS V14.01,2013-03-06 11:34:00,
2013-03-06 05:35:00,28.4,25.0,30.12,NW,315,5.0,12.0,87,0.00,,FEW070,0.00,VWS V14.01,2013-03-06 11:35:00,
2013-03-06 05:39:00,27.7,24.6,30.12,WNW,302,13.0,15.0,88,0.00,,OVC016,0.00,VWS V14.01,2013-03-06 11:39:00,
2013-03-06 05:40:00,28.5,25.1,30.12,NNW,332,4.0,12.0,87,0.00,,FEW070,0.00,VWS V14.01,2013-03-06 11:40:00,
2013-03-06 05:44:00,27.8,24.4,30.12,NNW,333,13.0,18.0,87,0.00,,OVC016,0.00,VWS V14.01,2013-03-06 11:44:00,
2013-03-06 05:45:00,28.6,25.2,30.12,NNW,345,7.0,13.0,87,0.00,,FEW070,0.00,VWS V14.01,2013-03-06 11:45:00,
2013-03-06 05:49:00,27.8,24.4,30.12,NNW,331,9.0,15.0,87,0.00,,OVC016,0.00,VWS V14.01,2013-03-06 11:49:00,
2013-03-06 05:50:00,28.8,25.4,30.12,NW,322,7.0,14.0,87,0.00,,FEW070,0.00,VWS V14.01,2013-03-06 11:50:00,
2013-03-06 05:54:00,27.9,24.5,30.12,NW,320,10.0,14.0,87,0.00,,OVC016,0.00,VWS V14.01,2013-03-06 11:54:00,
2013-03-06 05:55:00,28.8,25.4,30.13,NW,323,0.0,9.0,87,0.00,,FEW070,0.00,VWS V14.01,2013-03-06 11:55:00,
2013-03-06 05:59:00,27.9,24.5,30.12,NW,322,8.0,12.0,87,0.00,,OVC016,0.00,VWS V14.01,2013-03-06 11:59:00,
2013-03-06 06:00:00,28.9,25.2,30.13,NW,316,9.0,11.0,86,0.00,,FEW070,0.00,VWS V14.01,2013-03-06 12:00:00,
2013-03-06 06:04:00,27.9,24.5,30.12,NW,325,5.0,10.0,87,0.00,,OVC020,0.00,VWS V14.01,2013-03-06 12:04:00,
2013-03-06 06:05:00,29.0,25.3,30.13,NW,321,3.0,10.0,86,0.00,,FEW070,0.00,VWS V14.01,2013-03-06 12:05:00,
2013-03-06 06:09:00,27.9,24.5,30.12,NNW,341,5.0,9.0,87,0.00,,OVC020,0.00,VWS V14.01,2013-03-06 12:09:00,
2013-03-06 06:10:00,29.1,25.4,30.14,North,360,0.0,10.0,86,0.00,,FEW070,0.00,VWS V14.01,2013-03-06 12:10:00,
2013-03-06 06:14:00,28.0,24.6,30.12,NW,309,8.0,13.0,87,0.00,,OVC020,0.00,VWS V14.01,2013-03-06 12:14:00,
2013-03-06 06:15:00,29.2,25.5,30.14,NNW,340,3.0,13.0,86,0.00,,FEW070,0.00,VWS V14.01,2013-03-06 12:15:00,
2013-03-06 06:19:00,28.1,24.7,30.12,NW,325,2.0,13.0,87,0.00,,OVC020,0.00,VWS V14.01,2013-03-06 12:19:00,
2013-03-06 06:20:00,29.2,25.5,30.15,NW,324,4.0,13.0,86,0.00,,FEW070,0.00,VWS V14.01,2013-03-06 12:20:00,
2013-03-06 06:24:00,28.1,25.0,30.12,NW,310,8.0,12.0,88,0.00,,OVC020,0.00,VWS V14.01,2013-03-06 12:24:00,
2013-03-06 06:25:00,29.3,25.6,30.15,NW,319,7.0,12.0,86,0.00,,FEW070,0.00,VWS V14.01,2013-03-06 12:25:00,
2013-03-06 06:29:00,28.3,24.9,30.12,NW,312,8.0,10.0,87,0.00,,OVC020,0.00,VWS V14.01,2013-03-06 12:29:00,
2013-03-06 06:30:00,29.3,25.6,30.15,WNW,300,8.0,10.0,86,0.00,,FEW070,0.00,VWS V14.01,2013-03-06 12:30:00,
2013-03-06 06:34:00,28.4,25.0,30.12,NW,315,5.0,12.0,87,0.00,,OVC020,0.00,VWS V14.01,2013-03-06 12:34:00,
2013-03-06 06:35:00,29.3,25.6,30.15,NNE,16,3.0,11.0,86,0.00,,FEW070,0.00,VWS V14.01,2013-03-06 12:35:00,
2013-03-06 06:39:00,28.5,25.1,30.12,NNW,332,4.0,12.0,87,0.00,,OVC020,0.00,VWS V14.01,2013-03-06 12:39:00,
2013-03-06 06:40:00,29.3,25.6,30.15,NW,309,5.0,12.0,86,0.00,,FEW070,0.00,VWS V14.01,2013-03-06 12:40:00,
2013-03-06 06:44:00,28.7,25.3,30.12,NNW,346,7.0,13.0,87,0.00,,OVC020,0.00,VWS V14.01,2013-03-06 12:44:00,
2013-03-06 06:45:00,29.3,25.6,30.16,WNW,300,8.0,12.0,86,0.00,,FEW070,0.00,VWS V14.01,2013-03-06 12:45:00,
2013-03-06 06:49:00,28.8,25.4,30.12,NNW,327,4.0,11.0,87,0.00,,OVC020,0.00,VWS V14.01,2013-03-06 12:49:00,
2013-03-06 06:50:00,29.2,25.5,30.16,NW,311,3.0,12.0,86,0.00,,FEW070,0.00,VWS V14.01,2013-03-06 12:50:00,
2013-03-06 06:54:00,28.8,25.4,30.13,NW,325,0.0,9.0,87,0.00,,OVC020,0.00,VWS V14.01,2013-03-06 12:54:00,
2013-03-06 06:55:00,29.2,25.5,30.16,WNW,300,9.0,13.0,86,0.00,,FEW070,0.00,VWS V14.01,2013-03-06 12:55:00,
2013-03-06 06:59:00,28.9,25.2,30.13,WNW,302,6.0,11.0,86,0.00,,OVC020,0.00,VWS V14.01,2013-03-06 12:59:00,
2013-03-06 07:00:00,29.3,25.6,30.16,NW,313,6.0,12.0,86,0.00,,FEW070,0.00,VWS V14.01,2013-03-06 13:00:00,
2013-03-06 07:04:00,29.0,25.4,30.13,NNW,328,4.0,10.0,86,0.00,,OVC024,0.00,VWS V14.01,2013-03-06 13:04:00,
2013-03-06 07:05:00,29.2,25.5,30.17,WNW,297,6.0,14.0,86,0.00,,FEW070,0.00,VWS V14.01,2013-03-06 13:05:00,
2013-03-06 07:09:00,29.1,25.4,30.14,NW,324,6.0,10.0,86,0.00,,OVC024,0.00,VWS V14.01,2013-03-06 13:09:00,
2013-03-06 07:10:00,29.2,25.5,30.17,NW,309,5.0,14.0,86,0.00,,FEW070,0.00,VWS V14.01,2013-03-06 13:10:00,
2013-03-06 07:15:00,29.2,25.5,30.14,NW,320,8.0,13.0,86,0.00,,OVC024,0.00,VWS V14.01,2013-03-06 13:15:00,
2013-03-06 07:20:00,29.2,25.5,30.15,NW,310,4.0,13.0,86,0.00,,OVC024,0.00,VWS V14.01,2013-03-06 13:20:00,
2013-03-06 07:25:00,29.3,25.6,30.15,NW,308,7.0,12.0,86,0.00,,OVC024,0.00,VWS V14.01,2013-03-06 13:25:00,
2013-03-06 07:30:00,29.3,25.6,30.15,NW,308,4.0,10.0,86,0.00,,OVC024,0.00,VWS V14.01,2013-03-06 13:30:00,
2013-03-06 07:35:00,29.3,25.6,30.15,NW,315,7.0,11.0,86,0.00,,OVC024,0.00,VWS V14.01,2013-03-06 13:35:00,
2013-03-06 07:40:00,29.3,25.6,30.16,WNW,292,8.0,14.0,86,0.00,,OVC024,0.00,VWS V14.01,2013-03-06 13:40:00,
2013-03-06 07:45:00,29.2,25.5,30.16,NNW,342,10.0,12.0,86,0.00,,OVC024,0.00,VWS V14.01,2013-03-06 13:45:00,
2013-03-06 07:50:00,29.2,25.5,30.16,WNW,292,10.0,12.0,86,0.00,,OVC024,0.00,VWS V14.01,2013-03-06 13:50:00,
2013-03-06 07:55:00,29.2,25.5,30.16,WNW,295,8.0,13.0,86,0.00,,OVC024,0.00,VWS V14.01,2013-03-06 13:55:00,
2013-03-06 08:00:00,29.3,25.6,30.16,NW,306,7.0,12.0,86,0.00,,OVC024,0.00,VWS V14.01,2013-03-06 14:00:00,
2013-03-06 08:05:00,29.2,25.5,30.17,WNW,288,10.0,13.0,86,0.00,,OVC026,0.00,VWS V14.01,2013-03-06 14:05:00,
2013-03-06 08:10:00,29.2,25.5,30.17,WNW,292,6.0,12.0,86,0.00,,OVC026,0.00,VWS V14.01,2013-03-06 14:10:00,
2013-03-06 08:15:00,29.6,25.9,30.19,NW,317,7.0,16.0,86,0.00,,FEW070,0.00,VWS V14.01,2013-03-06 14:15:00,
2013-03-06 08:16:00,29.1,25.4,30.17,NW,309,10.0,16.0,86,0.00,,OVC026,0.00,VWS V14.01,2013-03-06 14:16:00,
2013-03-06 08:20:00,29.6,25.9,30.19,WNW,295,11.0,16.0,86,0.00,,FEW070,0.00,VWS V14.01,2013-03-06 14:20:00,
2013-03-06 08:21:00,29.0,25.6,30.17,WNW,282,12.0,17.0,87,0.00,,OVC026,0.00,VWS V14.01,2013-03-06 14:21:00,
2013-03-06 08:25:00,29.7,26.0,30.19,WNW,295,15.0,16.0,86,0.00,,FEW070,0.00,VWS V14.01,2013-03-06 14:25:00,
2013-03-06 08:26:00,29.0,25.6,30.18,NW,319,8.0,18.0,87,0.00,,OVC026,0.00,VWS V14.01,2013-03-06 14:26:00,
2013-03-06 08:30:00,29.8,25.9,30.18,NW,317,9.0,14.0,85,0.00,,FEW070,0.00,VWS V14.01,2013-03-06 14:30:00,
2013-03-06 08:31:00,29.0,25.6,30.18,WNW,300,7.0,15.0,87,0.00,,OVC026,0.00,VWS V14.01,2013-03-06 14:31:00,
2013-03-06 08:35:00,30.0,26.0,30.19,NW,323,9.0,14.0,85,0.00,,FEW070,0.00,VWS V14.01,2013-03-06 14:35:00,
2013-03-06 08:36:00,29.1,26.0,30.18,NW,314,5.0,13.0,88,0.00,,OVC026,0.00,VWS V14.01,2013-03-06 14:36:00,
2013-03-06 08:40:00,30.5,26.5,30.19,WNW,296,18.0,18.0,85,0.00,,FEW070,0.00,VWS V14.01,2013-03-06 14:40:00,
2013-03-06 08:41:00,29.2,26.1,30.18,WNW,303,18.0,18.0,88,0.00,,OVC026,0.00,VWS V14.01,2013-03-06 14:41:00,
2013-03-06 08:45:00,30.6,26.4,30.18,NW,314,5.0,17.0,84,0.00,,FEW070,0.00,VWS V14.01,2013-03-06 14:45:00,
2013-03-06 08:46:00,29.1,25.7,30.18,NW,312,12.0,15.0,87,0.00,,OVC026,0.00,VWS V14.01,2013-03-06 14:46:00,
2013-03-06 08:50:00,30.8,26.5,30.18,WNW,297,8.0,18.0,84,0.00,,FEW070,0.00,VWS V14.01,2013-03-06 14:50:00,
2013-03-06 08:51:00,29.2,26.1,30.18,NW,318,11.0,14.0,88,0.00,,OVC026,0.00,VWS V14.01,2013-03-06 14:51:00,
2013-03-06 08:55:00,30.9,26.6,30.18,NW,309,7.0,16.0,84,0.00,,FEW070,0.00,VWS V14.01,2013-03-06 14:55:00,
2013-03-06 08:56:00,29.3,26.2,30.18,WNW,295,11.0,15.0,88,0.00,,OVC026,0.00,VWS V14.01,2013-03-06 14:56:00,
2013-03-06 09:00:00,31.1,26.8,30.19,WNW,282,7.0,14.0,84,0.00,,FEW070,0.00,VWS V14.01,2013-03-06 15:00:00,
2013-03-06 09:01:00,29.3,26.2,30.19,WNW,294,4.0,15.0,88,0.00,,,0.00,VWS V14.01,2013-03-06 15:01:00,
2013-03-06 09:05:00,31.4,26.8,30.19,WNW,294,11.0,18.0,83,0.00,,FEW070,0.00,VWS V14.01,2013-03-06 15:05:00,
2013-03-06 09:06:00,29.6,26.2,30.19,NNW,333,6.0,16.0,87,0.00,,,0.00,VWS V14.01,2013-03-06 15:06:00,
2013-03-06 09:10:00,31.3,26.8,30.19,NW,304,11.0,15.0,83,0.00,,FEW070,0.00,VWS V14.01,2013-03-06 15:10:00,
2013-03-06 09:11:00,29.7,26.0,30.19,NW,320,7.0,15.0,86,0.00,,,0.00,VWS V14.01,2013-03-06 15:11:00,
2013-03-06 09:15:00,31.5,26.9,30.19,WNW,294,12.0,12.0,83,0.00,,FEW070,0.00,VWS V14.01,2013-03-06 15:15:00,
2013-03-06 09:16:00,29.6,25.9,30.19,NW,307,11.0,16.0,86,0.00,,,0.00,VWS V14.01,2013-03-06 15:16:00,
2013-03-06 09:20:00,31.6,27.0,30.19,WNW,298,6.0,14.0,83,0.00,,FEW070,0.00,VWS V14.01,2013-03-06 15:20:00,
2013-03-06 09:21:00,29.6,25.9,30.18,NW,307,12.0,15.0,86,0.00,,,0.00,VWS V14.01,2013-03-06 15:21:00,
2013-03-06 09:25:00,31.4,26.5,30.19,WNW,302,10.0,16.0,82,0.00,,FEW070,0.00,VWS V14.01,2013-03-06 15:25:00,
2013-03-06 09:26:00,29.8,26.1,30.19,NW,319,7.0,16.0,86,0.00,,,0.00,VWS V14.01,2013-03-06 15:26:00,
2013-03-06 09:30:00,31.6,27.0,30.19,WNW,300,8.0,14.0,83,0.00,,FEW070,0.00,VWS V14.01,2013-03-06 15:30:00,
2013-03-06 09:31:00,29.9,26.0,30.19,NW,312,11.0,14.0,85,0.00,,,0.00,VWS V14.01,2013-03-06 15:31:00,
2013-03-06 09:35:00,31.8,26.9,30.19,NW,309,8.0,16.0,82,0.00,,FEW070,0.00,VWS V14.01,2013-03-06 15:35:00,
2013-03-06 09:36:00,30.2,26.5,30.19,WNW,297,11.0,12.0,86,0.00,,,0.00,VWS V14.01,2013-03-06 15:36:00,
2013-03-06 09:40:00,31.9,27.0,30.20,NW,309,11.0,16.0,82,0.00,,FEW070,0.00,VWS V14.01,2013-03-06 15:40:00,
2013-03-06 09:42:00,30.5,26.2,30.18,NW,320,10.0,18.0,84,0.00,,,0.00,VWS V14.01,2013-03-06 15:42:00,
2013-03-06 09:45:00,31.9,27.0,30.20,WNW,294,5.0,14.0,82,0.00,,FEW070,0.00,VWS V14.01,2013-03-06 15:45:00,
2013-03-06 09:47:00,30.8,26.5,30.18,NW,313,4.0,14.0,84,0.00,,,0.00,VWS V14.01,2013-03-06 15:47:00,
2013-03-06 09:50:00,32.2,27.3,30.20,WNW,296,11.0,14.0,82,0.00,,FEW070,0.00,VWS V14.01,2013-03-06 15:50:00,
2013-03-06 09:52:00,30.8,26.5,30.18,WNW,300,13.0,18.0,84,0.00,,,0.00,VWS V14.01,2013-03-06 15:52:00,
2013-03-06 09:55:00,32.2,27.3,30.20,WNW,284,12.0,14.0,82,0.00,,FEW070,0.00,VWS V14.01,2013-03-06 15:55:00,
2013-03-06 09:57:00,31.0,26.7,30.19,WNW,300,6.0,14.0,84,0.00,,,0.00,VWS V14.01,2013-03-06 15:57:00,
2013-03-06 10:00:00,32.3,27.4,30.20,NW,315,7.0,14.0,82,0.00,,FEW070,0.00,VWS V14.01,2013-03-06 16:00:00,
2013-03-06 10:02:00,31.2,26.6,30.19,NW,317,9.0,18.0,83,0.00,,OVC031,0.00,VWS V14.01,2013-03-06 16:02:00,
2013-03-06 10:05:00,32.5,27.6,30.20,NW,306,9.0,11.0,82,0.00,,FEW070,0.00,VWS V14.01,2013-03-06 16:05:00,
2013-03-06 10:07:00,31.4,26.8,30.19,WNW,289,11.0,15.0,83,0.00,,OVC031,0.00,VWS V14.01,2013-03-06 16:07:00,
2013-03-06 10:10:00,32.5,27.3,30.20,WNW,294,5.0,14.0,81,0.00,,FEW070,0.00,VWS V14.01,2013-03-06 16:10:00,
2013-03-06 10:12:00,31.4,26.8,30.19,NW,307,8.0,13.0,83,0.00,,OVC031,0.00,VWS V14.01,2013-03-06 16:12:00,
2013-03-06 10:15:00,32.8,27.6,30.20,NNW,329,8.0,12.0,81,0.00,,FEW070,0.00,VWS V14.01,2013-03-06 16:15:00,
2013-03-06 10:17:00,31.5,26.9,30.19,NW,310,2.0,13.0,83,0.00,,OVC031,0.00,VWS V14.01,2013-03-06 16:17:00,
2013-03-06 10:20:00,32.9,27.7,30.20,NW,317,1.0,12.0,81,0.00,,FEW070,0.00,VWS V14.01,2013-03-06 16:20:00,
2013-03-06 10:22:00,31.5,26.9,30.19,WNW,292,8.0,16.0,83,0.00,,OVC031,0.00,VWS V14.01,2013-03-06 16:22:00,
2013-03-06 10:25:00,33.0,27.8,30.20,NNW,346,7.0,11.0,81,0.00,,FEW070,0.00,VWS V14.01,2013-03-06 16:25:00,
2013-03-06 10:27:00,31.5,26.9,30.19,NW,304,9.0,15.0,83,0.00,,OVC031,0.00,VWS V14.01,2013-03-06 16:27:00,
2013-03-06 10:30:00,33.3,28.1,30.20,North,355,4.0,11.0,81,0.00,,FEW070,0.00,VWS V14.01,2013-03-06 16:30:00,
2013-03-06 10:32:00,31.7,27.1,30.19,NW,312,6.0,14.0,83,0.00,,OVC031,0.00,VWS V14.01,2013-03-06 16:32:00,
2013-03-06 10:35:00,33.4,27.9,30.20,NNW,330,8.0,10.0,80,0.00,,FEW070,0.00,VWS V14.01,2013-03-06 16:35:00,
2013-03-06 10:37:00,31.8,26.9,30.19,North,355,7.0,16.0,82,0.00,,OVC031,0.00,VWS V14.01,2013-03-06 16:37:00,
2013-03-06 10:40:00,33.5,28.3,30.20,NNW,339,10.0,11.0,81,0.00,,FEW070,0.00,VWS V14.01,2013-03-06 16:40:00,
2013-03-06 10:42:00,31.9,27.0,30.20,NW,317,6.0,16.0,82,0.00,,OVC031,0.00,VWS V14.01,2013-03-06 16:42:00,
2013-03-06 10:45:00,33.6,28.1,30.20,NNW,334,5.0,10.0,80,0.00,,FEW070,0.00,VWS V14.01,2013-03-06 16:45:00,
2013-03-06 10:47:00,32.1,27.5,30.20,WNW,294,7.0,10.0,83,0.00,,OVC031,0.00,VWS V14.01,2013-03-06 16:47:00,
2013-03-06 10:50:00,33.9,28.4,30.20,NW,324,1.0,9.0,80,0.00,,FEW070,0.00,VWS V14.01,2013-03-06 16:50:00,
2013-03-06 10:52:00,32.2,27.3,30.20,WNW,298,10.0,14.0,82,0.00,,OVC031,0.00,VWS V14.01,2013-03-06 16:52:00,
2013-03-06 10:55:00,34.4,28.6,30.20,NNE,16,4.0,13.0,79,0.00,,FEW070,0.00,VWS V14.01,2013-03-06 16:55:00,
2013-03-06 10:57:00,32.3,27.4,30.20,NW,325,8.0,14.0,82,0.00,,OVC031,0.00,VWS V14.01,2013-03-06 16:57:00,
2013-03-06 11:00:00,34.5,28.7,30.20,WNW,296,3.0,10.0,79,0.00,,FEW070,0.00,VWS V14.01,2013-03-06 17:00:00,
2013-03-06 11:02:00,32.3,27.4,30.20,WNW,295,5.0,12.0,82,0.00,,OVC030,0.00,VWS V14.01,2013-03-06 17:02:00,
2013-03-06 11:05:00,34.6,28.5,30.20,NNW,332,8.0,11.0,78,0.00,,FEW070,0.00,VWS V14.01,2013-03-06 17:05:00,
2013-03-06 11:07:00,32.5,27.3,30.20,NW,321,11.0,14.0,81,0.00,,OVC030,0.00,VWS V14.01,2013-03-06 17:07:00,
2013-03-06 11:10:00,34.9,28.8,30.20,NW,321,4.0,11.0,78,0.00,,FEW070,0.00,VWS V14.01,2013-03-06 17:10:00,
2013-03-06 11:12:00,32.7,27.5,30.20,North,350,7.0,12.0,81,0.00,,OVC030,0.00,VWS V14.01,2013-03-06 17:12:00,
2013-03-06 11:15:00,34.7,28.6,30.20,NW,318,1.0,11.0,78,0.00,,FEW070,0.00,VWS V14.01,2013-03-06 17:15:00,
2013-03-06 11:18:00,32.8,27.6,30.20,NW,315,4.0,12.0,81,0.00,,OVC030,0.00,VWS V14.01,2013-03-06 17:18:00,
2013-03-06 11:20:00,34.8,29.0,30.20,NW,319,8.0,10.0,79,0.00,,FEW070,0.00,VWS V14.01,2013-03-06 17:20:00,
2013-03-06 11:23:00,33.0,27.5,30.20,NW,311,7.0,11.0,80,0.00,,OVC030,0.00,VWS V14.01,2013-03-06 17:23:00,
2013-03-06 11:25:00,34.9,28.8,30.19,WNW,299,8.0,10.0,78,0.00,,FEW070,0.00,VWS V14.01,2013-03-06 17:25:00,
2013-03-06 11:28:00,33.3,28.1,30.20,NW,318,5.0,11.0,81,0.00,,OVC030,0.00,VWS V14.01,2013-03-06 17:28:00,
2013-03-06 11:30:00,34.8,28.3,30.19,WNW,303,6.0,11.0,77,0.00,,FEW070,0.00,VWS V14.01,2013-03-06 17:30:00,
2013-03-06 11:33:00,33.4,27.9,30.19,NNW,343,5.0,10.0,80,0.00,,OVC030,0.00,VWS V14.01,2013-03-06 17:33:00,
2013-03-06 11:35:00,35.0,28.9,30.19,NW,312,6.0,12.0,78,0.00,,FEW070,0.00,VWS V14.01,2013-03-06 17:35:00,
2013-03-06 11:38:00,33.4,27.9,30.20,North,355,6.0,11.0,80,0.00,,OVC030,0.00,VWS V14.01,2013-03-06 17:38:00,
2013-03-06 11:40:00,34.9,28.8,30.19,WNW,300,8.0,12.0,78,0.00,,FEW070,0.00,VWS V14.01,2013-03-06 17:40:00,
2013-03-06 11:43:00,33.5,28.0,30.20,NNW,333,4.0,11.0,80,0.00,,OVC030,0.00,VWS V14.01,2013-03-06 17:43:00,
2013-03-06 11:45:00,35.1,28.9,30.19,NW,308,1.0,11.0,78,0.00,,FEW070,0.00,VWS V14.01,2013-03-06 17:45:00,
2013-03-06 11:48:00,33.8,28.3,30.20,North,355,7.0,9.0,80,0.00,,OVC030,0.00,VWS V14.01,2013-03-06 17:48:00,
2013-03-06 11:50:00,35.1,28.6,30.19,NW,323,2.0,12.0,77,0.00,,FEW070,0.00,VWS V14.01,2013-03-06 17:50:00,
2013-03-06 11:53:00,34.4,28.9,30.20,NNW,335,7.0,13.0,80,0.00,,OVC030,0.00,VWS V14.01,2013-03-06 17:53:00,
2013-03-06 11:55:00,35.0,28.9,30.19,NW,315,4.0,12.0,78,0.00,,FEW070,0.00,VWS V14.01,2013-03-06 17:55:00,
2013-03-06 11:58:00,34.4,28.3,30.20,WNW,294,7.0,10.0,78,0.00,,OVC030,0.00,VWS V14.01,2013-03-06 17:58:00,
2013-03-06 12:00:00,34.9,28.4,30.19,WNW,295,2.0,10.0,77,0.00,,FEW070,0.00,VWS V14.01,2013-03-06 18:00:00,
2013-03-06 12:03:00,34.6,28.8,30.20,NNW,342,7.0,11.0,79,0.00,,OVC032,0.00,VWS V14.01,2013-03-06 18:03:00,
2013-03-06 12:05:00,34.9,28.8,30.19,NW,323,2.0,11.0,78,0.00,,FEW070,0.00,VWS V14.01,2013-03-06 18:05:00,
2013-03-06 12:08:00,34.9,28.8,30.20,NNW,327,4.0,8.0,78,0.00,,OVC032,0.00,VWS V14.01,2013-03-06 18:08:00,
2013-03-06 12:10:00,35.0,29.2,30.19,NW,321,1.0,8.0,79,0.00,,FEW070,0.00,VWS V14.01,2013-03-06 18:10:00,
2013-03-06 12:13:00,34.8,28.6,30.20,NW,316,8.0,11.0,78,0.00,,OVC032,0.00,VWS V14.01,2013-03-06 18:13:00,
2013-03-06 12:15:00,34.8,28.6,30.19,WNW,290,9.0,12.0,78,0.00,,FEW070,0.00,VWS V14.01,2013-03-06 18:15:00,
2013-03-06 12:18:00,34.8,28.6,30.20,WNW,290,9.0,10.0,78,0.00,,OVC032,0.00,VWS V14.01,2013-03-06 18:18:00,
2013-03-06 12:20:00,34.7,28.9,30.19,North,355,6.0,12.0,79,0.00,,FEW070,0.00,VWS V14.01,2013-03-06 18:20:00,
2013-03-06 12:23:00,34.8,28.6,30.19,WNW,294,7.0,12.0,78,0.00,,OVC032,0.00,VWS V14.01,2013-03-06 18:23:00,
2013-03-06 12:25:00,34.7,28.6,30.19,WNW,298,6.0,13.0,78,0.00,,FEW070,0.00,VWS V14.01,2013-03-06 18:25:00,
2013-03-06 12:28:00,34.8,28.3,30.19,NW,308,7.0,11.0,77,0.00,,OVC032,0.00,VWS V14.01,2013-03-06 18:28:00,
2013-03-06 12:30:00,34.4,28.6,30.19,NW,323,11.0,14.0,79,0.00,,FEW070,0.00,VWS V14.01,2013-03-06 18:30:00,
2013-03-06 12:33:00,35.1,28.9,30.19,NW,311,7.0,12.0,78,0.00,,OVC032,0.00,VWS V14.01,2013-03-06 18:33:00,
2013-03-06 12:35:00,34.3,28.8,30.19,WNW,288,15.0,15.0,80,0.00,,FEW070,0.00,VWS V14.01,2013-03-06 18:35:00,
2013-03-06 12:38:00,34.9,28.8,30.19,NW,304,6.0,12.0,78,0.00,,OVC032,0.00,VWS V14.01,2013-03-06 18:38:00,
2013-03-06 12:40:00,34.1,28.6,30.19,WNW,290,9.0,15.0,80,0.00,,FEW070,0.00,VWS V14.01,2013-03-06 18:40:00,
2013-03-06 12:44:00,35.1,28.9,30.19,WNW,284,2.0,11.0,78,0.00,,OVC032,0.00,VWS V14.01,2013-03-06 18:44:00,
2013-03-06 12:45:00,34.0,28.2,30.19,West,280,5.0,16.0,79,0.00,,FEW070,0.00,VWS V14.01,2013-03-06 18:45:00,
2013-03-06 12:49:00,35.1,28.6,30.19,NNW,343,3.0,12.0,77,0.00,,OVC032,0.00,VWS V14.01,2013-03-06 18:49:00,
2013-03-06 12:50:00,33.9,28.1,30.19,North,355,9.0,14.0,79,0.00,,FEW070,0.00,VWS V14.01,2013-03-06 18:50:00,
2013-03-06 12:54:00,35.0,28.5,30.19,NW,319,1.0,12.0,77,0.00,,OVC032,0.00,VWS V14.01,2013-03-06 18:54:00,
2013-03-06 12:55:00,33.8,28.3,30.19,WNW,288,10.0,15.0,80,0.00,,FEW070,0.00,VWS V14.01,2013-03-06 18:55:00,
2013-03-06 12:59:00,35.0,28.9,30.19,WNW,298,8.0,10.0,78,0.00,,OVC032,0.00,VWS V14.01,2013-03-06 18:59:00,
2013-03-06 13:00:00,33.7,28.2,30.19,WNW,296,6.0,14.0,80,0.00,,FEW070,0.00,VWS V14.01,2013-03-06 19:00:00,
2013-03-06 13:04:00,34.9,28.8,30.19,NW,323,7.0,11.0,78,0.00,,OVC023,0.00,VWS V14.01,2013-03-06 19:04:00,
2013-03-06 13:05:00,33.7,28.2,30.19,WNW,302,6.0,16.0,80,0.00,,FEW070,0.00,VWS V14.01,2013-03-06 19:05:00,
2013-03-06 13:09:00,35.0,29.2,30.19,NW,321,0.0,8.0,79,0.00,,OVC023,0.00,VWS V14.01,2013-03-06 19:09:00,
2013-03-06 13:10:00,33.6,28.1,30.20,NW,314,6.0,15.0,80,0.00,,FEW070,0.00,VWS V14.01,2013-03-06 19:10:00,
2013-03-06 13:14:00,34.8,28.6,30.19,WNW,290,9.0,12.0,78,0.00,,OVC023,0.00,VWS V14.01,2013-03-06 19:14:00,
2013-03-06 13:15:00,33.6,28.1,30.20,NW,316,8.0,13.0,80,0.00,,FEW070,0.00,VWS V14.01,2013-03-06 19:15:00,
2013-03-06 13:19:00,34.7,28.9,30.19,North,355,6.0,12.0,79,0.00,,OVC023,0.00,VWS V14.01,2013-03-06 19:19:00,
2013-03-06 13:20:00,33.6,28.1,30.20,NW,306,5.0,11.0,80,0.00,,FEW070,0.00,VWS V14.01,2013-03-06 19:20:00,
2013-03-06 13:24:00,34.7,28.5,30.19,WNW,298,6.0,13.0,78,0.00,,OVC023,0.00,VWS V14.01,2013-03-06 19:24:00,
2013-03-06 13:25:00,33.5,28.0,30.20,NW,321,9.0,13.0,80,0.00,,FEW070,0.00,VWS V14.01,2013-03-06 19:25:00,
2013-03-06 13:29:00,34.4,28.6,30.19,NW,323,11.0,14.0,79,0.00,,OVC023,0.00,VWS V14.01,2013-03-06 19:29:00,
2013-03-06 13:30:00,33.6,28.1,30.20,NW,319,2.0,11.0,80,0.00,,FEW070,0.00,VWS V14.01,2013-03-06 19:30:00,
2013-03-06 13:34:00,34.3,28.8,30.19,WNW,288,15.0,15.0,80,0.00,,OVC023,0.00,VWS V14.01,2013-03-06 19:34:00,
2013-03-06 13:35:00,33.6,28.1,30.20,NNW,334,8.0,13.0,80,0.00,,FEW070,0.00,VWS V14.01,2013-03-06 19:35:00,
2013-03-06 13:39:00,34.1,28.6,30.19,WNW,290,9.0,15.0,80,0.00,,OVC023,0.00,VWS V14.01,2013-03-06 19:39:00,
2013-03-06 13:40:00,33.8,28.0,30.20,NNW,333,2.0,11.0,79,0.00,,FEW070,0.00,VWS V14.01,2013-03-06 19:40:00,
2013-03-06 13:44:00,34.0,28.2,30.19,West,280,5.0,16.0,79,0.00,,OVC023,0.00,VWS V14.01,2013-03-06 19:44:00,
2013-03-06 13:45:00,34.0,28.2,30.20,WNW,298,7.0,10.0,79,0.00,,FEW070,0.00,VWS V14.01,2013-03-06 19:45:00,
2013-03-06 13:49:00,33.9,28.1,30.19,North,355,9.0,14.0,79,0.00,,OVC023,0.00,VWS V14.01,2013-03-06 19:49:00,
2013-03-06 13:50:00,33.9,28.1,30.20,NW,311,9.0,12.0,79,0.00,,FEW070,0.00,VWS V14.01,2013-03-06 19:50:00,
2013-03-06 13:54:00,33.8,28.3,30.19,WNW,288,10.0,15.0,80,0.00,,OVC023,0.00,VWS V14.01,2013-03-06 19:54:00,
2013-03-06 13:55:00,33.7,27.9,30.20,WNW,299,6.0,11.0,79,0.00,,FEW070,0.00,VWS V14.01,2013-03-06 19:55:00,
2013-03-06 13:59:00,33.7,28.2,30.19,WNW,296,6.0,14.0,80,0.00,,OVC023,0.00,VWS V14.01,2013-03-06 19:59:00,
2013-03-06 14:00:00,33.7,27.9,30.20,North,355,4.0,12.0,79,0.00,,FEW070,0.00,VWS V14.01,2013-03-06 20:00:00,
2013-03-06 14:04:00,33.7,28.2,30.19,WNW,288,6.0,16.0,80,0.00,,OVC033,0.00,VWS V14.01,2013-03-06 20:04:00,
2013-03-06 14:05:00,33.5,27.7,30.20,NNW,331,10.0,14.0,79,0.00,,FEW070,0.00,VWS V14.01,2013-03-06 20:05:00,
2013-03-06 14:09:00,33.6,28.1,30.20,NNW,338,3.0,15.0,80,0.00,,OVC033,0.00,VWS V14.01,2013-03-06 20:09:00,
2013-03-06 14:10:00,33.5,27.7,30.20,NW,319,10.0,12.0,79,0.00,,FEW070,0.00,VWS V14.01,2013-03-06 20:10:00,
2013-03-06 14:14:00,33.6,28.1,30.20,NNW,345,7.0,13.0,80,0.00,,OVC033,0.00,VWS V14.01,2013-03-06 20:14:00,
2013-03-06 14:15:00,33.6,27.8,30.20,NNW,327,7.0,12.0,79,0.00,,FEW070,0.00,VWS V14.01,2013-03-06 20:15:00,
2013-03-06 14:19:00,33.6,28.1,30.20,NNW,331,6.0,11.0,80,0.00,,OVC033,0.00,VWS V14.01,2013-03-06 20:19:00,
2013-03-06 14:20:00,33.5,27.7,30.20,NNW,342,8.0,13.0,79,0.00,,FEW070,0.00,VWS V14.01,2013-03-06 20:20:00,
2013-03-06 14:24:00,33.5,28.0,30.20,NNW,331,9.0,13.0,80,0.00,,OVC033,0.00,VWS V14.01,2013-03-06 20:24:00,
2013-03-06 14:25:00,33.6,27.8,30.20,NNW,347,6.0,9.0,79,0.00,,FEW070,0.00,VWS V14.01,2013-03-06 20:25:00,
2013-03-06 14:30:00,33.6,28.1,30.20,NW,313,7.0,11.0,80,0.00,,OVC033,0.00,VWS V14.01,2013-03-06 20:30:00,
2013-03-06 14:35:00,33.6,28.1,30.20,NW,311,5.0,13.0,80,0.00,,OVC033,0.00,VWS V14.01,2013-03-06 20:35:00,
2013-03-06 14:40:00,33.8,28.0,30.20,NW,321,2.0,11.0,79,0.00,,OVC033,0.00,VWS V14.01,2013-03-06 20:40:00,
2013-03-06 14:45:00,34.0,28.2,30.20,NW,306,7.0,12.0,79,0.00,,OVC033,0.00,VWS V14.01,2013-03-06 20:45:00,
2013-03-06 14:50:00,33.8,28.0,30.20,WNW,291,8.0,12.0,79,0.00,,OVC033,0.00,VWS V14.01,2013-03-06 20:50:00,
2013-03-06 14:55:00,33.7,28.2,30.20,WNW,298,9.0,11.0,80,0.00,,OVC033,0.00,VWS V14.01,2013-03-06 20:55:00,
2013-03-06 15:00:00,33.7,27.9,30.20,NW,308,8.0,12.0,79,0.00,,OVC033,0.00,VWS V14.01,2013-03-06 21:00:00,
2013-03-06 15:05:00,33.5,27.7,30.20,North,351,5.0,14.0,79,0.00,,OVC021,0.00,VWS V14.01,2013-03-06 21:05:00,
2013-03-06 15:10:00,33.5,27.7,30.20,NNE,12,7.0,12.0,79,0.00,,OVC021,0.00,VWS V14.01,2013-03-06 21:10:00,
2013-03-06 15:15:00,33.6,27.8,30.20,NW,304,10.0,12.0,79,0.00,,OVC021,0.00,VWS V14.01,2013-03-06 21:15:00,
2013-03-06 15:20:00,33.5,27.7,30.20,NW,309,7.0,11.0,79,0.00,,OVC021,0.00,VWS V14.01,2013-03-06 21:20:00,
2013-03-06 15:25:00,33.7,27.9,30.20,NNW,338,6.0,11.0,79,0.00,,OVC021,0.00,VWS V14.01,2013-03-06 21:25:00,
2013-03-06 15:30:00,33.3,27.8,30.22,NW,315,9.0,10.0,80,0.00,,FEW070,0.00,VWS V14.01,2013-03-06 21:30:00,
2013-03-06 15:31:00,33.6,27.8,30.20,NW,321,1.0,12.0,79,0.00,,OVC021,0.00,VWS V14.01,2013-03-06 21:31:00,
2013-03-06 15:35:00,33.3,28.1,30.22,WNW,292,8.0,9.0,81,0.00,,FEW070,0.00,VWS V14.01,2013-03-06 21:35:00,
2013-03-06 15:36:00,33.6,27.8,30.20,NW,323,1.0,12.0,79,0.00,,OVC021,0.00,VWS V14.01,2013-03-06 21:36:00,
2013-03-06 15:40:00,33.2,27.7,30.22,WNW,302,4.0,11.0,80,0.00,,FEW070,0.00,VWS V14.01,2013-03-06 21:40:00,
2013-03-06 15:41:00,33.6,27.8,30.20,NW,313,5.0,12.0,79,0.00,,OVC021,0.00,VWS V14.01,2013-03-06 21:41:00,
2013-03-06 15:45:00,33.2,27.7,30.22,WNW,302,6.0,11.0,80,0.00,,FEW070,0.00,VWS V14.01,2013-03-06 21:45:00,
2013-03-06 15:46:00,33.6,27.8,30.20,NW,315,1.0,9.0,79,0.00,,OVC021,0.00,VWS V14.01,2013-03-06 21:46:00,
2013-03-06 15:50:00,33.1,27.9,30.22,NW,307,4.0,10.0,81,0.00,,FEW070,0.00,VWS V14.01,2013-03-06 21:50:00,
2013-03-06 15:51:00,33.5,27.7,30.21,NW,306,1.0,11.0,79,0.00,,OVC021,0.00,VWS V14.01,2013-03-06 21:51:00,
2013-03-06 15:55:00,33.1,27.9,30.22,NW,314,7.0,8.0,81,0.00,,FEW070,0.00,VWS V14.01,2013-03-06 21:55:00,
2013-03-06 15:56:00,33.4,27.6,30.21,NW,318,4.0,14.0,79,0.00,,OVC021,0.00,VWS V14.01,2013-03-06 21:56:00,
2013-03-06 16:00:00,32.9,27.4,30.22,WNW,293,10.0,12.0,80,0.00,,FEW070,0.00,VWS V14.01,2013-03-06 22:00:00,
2013-03-06 16:01:00,33.4,27.6,30.21,NW,316,4.0,10.0,79,0.00,,OVC021,0.00,VWS V14.01,2013-03-06 22:01:00,
2013-03-06 16:05:00,32.8,27.6,30.22,NW,308,9.0,11.0,81,0.00,,FEW070,0.00,VWS V14.01,2013-03-06 22:05:00,
2013-03-06 16:06:00,33.4,27.6,30.22,NNW,344,2.0,15.0,79,0.00,,OVC021,0.00,VWS V14.01,2013-03-06 22:06:00,
2013-03-06 16:10:00,32.9,28.0,30.22,NW,305,0.0,10.0,82,0.00,,FEW070,0.00,VWS V14.01,2013-03-06 22:10:00,
2013-03-06 16:11:00,33.4,27.9,30.22,NNW,338,0.0,11.0,80,0.00,,OVC021,0.00,VWS V14.01,2013-03-06 22:11:00,
2013-03-06 16:15:00,32.8,27.6,30.23,NW,326,6.0,9.0,81,0.00,,FEW070,0.00,VWS V14.01,2013-03-06 22:15:00,
2013-03-06 16:16:00,33.5,28.0,30.22,NNW,329,1.0,10.0,80,0.00,,OVC021,0.00,VWS V14.01,2013-03-06 22:16:00,
2013-03-06 16:20:00,32.9,27.7,30.23,West,277,4.0,14.0,81,0.00,,FEW070,0.00,VWS V14.01,2013-03-06 22:20:00,
2013-03-06 16:21:00,33.4,27.9,30.22,WNW,292,9.0,11.0,80,0.00,,OVC021,0.00,VWS V14.01,2013-03-06 22:21:00,
2013-03-06 16:25:00,32.9,28.0,30.23,NW,315,1.0,8.0,82,0.00,,FEW070,0.00,VWS V14.01,2013-03-06 22:25:00,
2013-03-06 16:26:00,33.3,27.8,30.22,NW,316,4.0,12.0,80,0.00,,OVC021,0.00,VWS V14.01,2013-03-06 22:26:00,
2013-03-06 16:30:00,33.0,28.1,30.23,WNW,299,5.0,9.0,82,0.00,,FEW070,0.00,VWS V14.01,2013-03-06 22:30:00,
2013-03-06 16:32:00,33.3,27.8,30.22,NW,314,1.0,11.0,80,0.00,,OVC021,0.00,VWS V14.01,2013-03-06 22:32:00,
2013-03-06 16:35:00,32.9,28.0,30.23,NW,305,7.0,10.0,82,0.00,,FEW070,0.00,VWS V14.01,2013-03-06 22:35:00,
2013-03-06 16:37:00,33.3,28.1,30.22,WNW,290,5.0,11.0,81,0.00,,OVC021,0.00,VWS V14.01,2013-03-06 22:37:00,
2013-03-06 16:40:00,32.9,28.0,30.23,NW,309,7.0,8.0,82,0.00,,FEW070,0.00,VWS V14.01,2013-03-06 22:40:00,
2013-03-06 16:42:00,33.2,27.7,30.22,NW,306,3.0,11.0,80,0.00,,OVC021,0.00,VWS V14.01,2013-03-06 22:42:00,
2013-03-06 16:45:00,32.9,28.0,30.23,WNW,299,10.0,11.0,82,0.00,,FEW070,0.00,VWS V14.01,2013-03-06 22:45:00,
2013-03-06 16:47:00,33.2,28.0,30.22,NW,306,7.0,10.0,81,0.00,,OVC021,0.00,VWS V14.01,2013-03-06 22:47:00,
2013-03-06 16:50:00,32.9,28.0,30.23,NW,307,5.0,10.0,82,0.00,,FEW070,0.00,VWS V14.01,2013-03-06 22:50:00,
2013-03-06 16:52:00,33.0,27.8,30.22,WNW,282,5.0,10.0,81,0.00,,OVC021,0.00,VWS V14.01,2013-03-06 22:52:00,
2013-03-06 16:55:00,32.8,27.9,30.23,West,263,1.0,11.0,82,0.00,,FEW070,0.00,VWS V14.01,2013-03-06 22:55:00,
2013-03-06 16:57:00,33.0,27.5,30.22,NW,308,10.0,11.0,80,0.00,,OVC021,0.00,VWS V14.01,2013-03-06 22:57:00,
2013-03-06 17:00:00,32.8,27.9,30.23,WNW,287,1.0,8.0,82,0.00,,FEW070,0.00,VWS V14.01,2013-03-06 23:00:00,
2013-03-06 17:02:00,32.9,27.7,30.22,WNW,303,7.0,12.0,81,0.00,,OVC021,0.00,VWS V14.01,2013-03-06 23:02:00,
2013-03-06 17:05:00,32.8,27.9,30.23,WNW,291,5.0,6.0,82,0.00,,FEW070,0.00,VWS V14.01,2013-03-06 23:05:00,
2013-03-06 17:07:00,32.8,27.6,30.22,WNW,296,5.0,11.0,81,0.00,,OVC021,0.00,VWS V14.01,2013-03-06 23:07:00,
2013-03-06 17:10:00,32.7,27.8,30.24,WSW,250,1.0,7.0,82,0.00,,FEW070,0.00,VWS V14.01,2013-03-06 23:10:00,
2013-03-06 17:12:00,32.9,27.7,30.23,WNW,291,7.0,9.0,81,0.00,,OVC021,0.00,VWS V14.01,2013-03-06 23:12:00,
2013-03-06 17:15:00,32.7,27.8,30.23,WNW,296,1.0,10.0,82,0.00,,FEW070,0.00,VWS V14.01,2013-03-06 23:15:00,
2013-03-06 17:17:00,32.9,28.0,30.23,NW,305,8.0,10.0,82,0.00,,OVC021,0.00,VWS V14.01,2013-03-06 23:17:00,
2013-03-06 17:20:00,32.6,27.7,30.24,WNW,295,8.0,11.0,82,0.00,,FEW070,0.00,VWS V14.01,2013-03-06 23:20:00,
2013-03-06 17:22:00,32.9,27.7,30.23,WNW,300,1.0,12.0,81,0.00,,OVC021,0.00,VWS V14.01,2013-03-06 23:22:00,
2013-03-06 17:25:00,32.5,27.6,30.24,WNW,300,5.0,8.0,82,0.00,,FEW070,0.00,VWS V14.01,2013-03-06 23:25:00,
2013-03-06 17:27:00,33.0,28.1,30.23,NW,310,7.0,8.0,82,0.00,,OVC021,0.00,VWS V14.01,2013-03-06 23:27:00,
2013-03-06 17:30:00,32.6,27.7,30.24,West,281,5.0,6.0,82,0.00,,FEW070,0.00,VWS V14.01,2013-03-06 23:30:00,
2013-03-06 17:32:00,32.9,27.7,30.23,WNW,286,8.0,10.0,81,0.00,,OVC021,0.00,VWS V14.01,2013-03-06 23:32:00,
2013-03-06 17:35:00,32.6,27.7,30.24,NW,315,1.0,7.0,82,0.00,,FEW070,0.00,VWS V14.01,2013-03-06 23:35:00,
2013-03-06 17:37:00,32.9,27.7,30.23,WNW,287,2.0,10.0,81,0.00,,OVC021,0.00,VWS V14.01,2013-03-06 23:37:00,
2013-03-06 17:40:00,32.6,27.7,30.24,WNW,288,2.0,7.0,82,0.00,,FEW070,0.00,VWS V14.01,2013-03-06 23:40:00,
2013-03-06 17:42:00,32.9,27.7,30.23,NW,309,1.0,10.0,81,0.00,,OVC021,0.00,VWS V14.01,2013-03-06 23:42:00,
2013-03-06 17:45:00,32.5,27.6,30.24,NW,305,5.0,6.0,82,0.00,,FEW070,0.00,VWS V14.01,2013-03-06 23:45:00,
2013-03-06 17:47:00,32.8,27.6,30.23,WNW,293,2.0,11.0,81,0.00,,OVC021,0.00,VWS V14.01,2013-03-06 23:47:00,
2013-03-06 17:50:00,32.5,27.6,30.24,WNW,284,6.0,9.0,82,0.00,,FEW070,0.00,VWS V14.01,2013-03-06 23:50:00,
2013-03-06 17:52:00,32.8,27.6,30.23,West,275,4.0,11.0,81,0.00,,OVC021,0.00,VWS V14.01,2013-03-06 23:52:00,
2013-03-06 17:55:00,32.5,27.6,30.24,WNW,288,1.0,7.0,82,0.00,,FEW070,0.00,VWS V14.01,2013-03-06 23:55:00,
2013-03-06 17:57:00,32.8,27.6,30.23,West,272,4.0,8.0,81,0.00,,OVC021,0.00,VWS V14.01,2013-03-06 23:57:00,
2013-03-06 18:00:00,32.5,27.6,30.24,WNW,299,0.0,7.0,82,0.00,,FEW070,0.00,VWS V14.01,2013-03-07 00:00:00,
2013-03-06 18:03:00,32.8,27.9,30.23,WSW,253,5.0,6.0,82,0.00,,OVC019,0.00,VWS V14.01,2013-03-07 00:03:00,
2013-03-06 18:05:00,32.5,27.6,30.24,WNW,296,6.0,9.0,82,0.00,,FEW070,0.00,VWS V14.01,2013-03-07 00:05:00,
2013-03-06 18:08:00,32.7,27.8,30.24,WNW,294,3.0,7.0,82,0.00,,OVC019,0.00,VWS V14.01,2013-03-07 00:08:00,
2013-03-06 18:10:00,32.4,27.5,30.24,West,264,2.0,7.0,82,0.00,,FEW070,0.00,VWS V14.01,2013-03-07 00:10:00,
2013-03-06 18:13:00,32.7,27.8,30.24,NW,308,1.0,9.0,82,0.00,,OVC019,0.00,VWS V14.01,2013-03-07 00:13:00,
2013-03-06 18:15:00,32.4,27.5,30.24,WNW,294,4.0,8.0,82,0.00,,FEW070,0.00,VWS V14.01,2013-03-07 00:15:00,
2013-03-06 18:18:00,32.6,27.7,30.24,WNW,298,9.0,11.0,82,0.00,,OVC019,0.00,VWS V14.01,2013-03-07 00:18:00,
2013-03-06 18:20:00,32.3,27.4,30.24,WNW,295,6.0,9.0,82,0.00,,FEW070,0.00,VWS V14.01,2013-03-07 00:20:00,
2013-03-06 18:23:00,32.6,27.7,30.24,WNW,296,2.0,9.0,82,0.00,,OVC019,0.00,VWS V14.01,2013-03-07 00:23:00,
2013-03-06 18:25:00,32.4,27.5,30.24,WNW,286,2.0,10.0,82,0.00,,FEW070,0.00,VWS V14.01,2013-03-07 00:25:00,
2013-03-06 18:28:00,32.6,27.7,30.24,West,279,1.0,7.0,82,0.00,,OVC019,0.00,VWS V14.01,2013-03-07 00:28:00,
2013-03-06 18:30:00,32.4,27.5,30.24,WNW,293,2.0,7.0,82,0.00,,FEW070,0.00,VWS V14.01,2013-03-07 00:30:00,
2013-03-06 18:33:00,32.6,27.7,30.24,NW,316,7.0,7.0,82,0.00,,OVC019,0.00,VWS V14.01,2013-03-07 00:33:00,
2013-03-06 18:35:00,32.4,27.8,30.25,WNW,298,7.0,8.0,83,0.00,,FEW070,0.00,VWS V14.01,2013-03-07 00:35:00,
2013-03-06 18:38:00,32.6,27.7,30.24,NW,306,6.0,7.0,82,0.00,,OVC019,0.00,VWS V14.01,2013-03-07 00:38:00,
2013-03-06 18:40:00,32.3,27.4,30.24,WSW,258,1.0,7.0,82,0.00,,FEW070,0.00,VWS V14.01,2013-03-07 00:40:00,
2013-03-06 18:43:00,32.5,27.6,30.24,WNW,298,4.0,6.0,82,0.00,,OVC019,0.00,VWS V14.01,2013-03-07 00:43:00,
2013-03-06 18:45:00,32.3,27.4,30.25,WNW,293,6.0,8.0,82,0.00,,FEW070,0.00,VWS V14.01,2013-03-07 00:45:00,
2013-03-06 18:48:00,32.5,27.6,30.24,WNW,298,1.0,9.0,82,0.00,,OVC019,0.00,VWS V14.01,2013-03-07 00:48:00,
2013-03-06 18:50:00,32.3,27.4,30.25,West,281,1.0,8.0,82,0.00,,FEW070,0.00,VWS V14.01,2013-03-07 00:50:00,
2013-03-06 18:53:00,32.5,27.6,30.24,WNW,299,4.0,8.0,82,0.00,,OVC019,0.00,VWS V14.01,2013-03-07 00:53:00,
2013-03-06 18:55:00,32.4,27.5,30.25,WNW,290,1.0,9.0,82,0.00,,FEW250,0.00,VWS V14.01,2013-03-07 00:55:00,
2013-03-06 18:58:00,32.5,27.6,30.24,WNW,299,1.0,7.0,82,0.00,,OVC019,0.00,VWS V14.01,2013-03-07 00:58:00,
2013-03-06 19:00:00,32.3,27.4,30.25,WNW,288,1.0,7.0,82,0.00,,FEW070,0.00,VWS V14.01,2013-03-07 01:00:00,
2013-03-06 19:03:00,32.5,27.6,30.24,WNW,290,6.0,9.0,82,0.00,,OVC023,0.00,VWS V14.01,2013-03-07 01:03:00,
2013-03-06 19:05:00,32.3,27.4,30.25,WNW,298,5.0,7.0,82,0.00,,FEW070,0.00,VWS V14.01,2013-03-07 01:05:00,
2013-03-06 19:08:00,32.4,27.5,30.24,NW,309,7.0,7.0,82,0.00,,OVC023,0.00,VWS V14.01,2013-03-07 01:08:00,
2013-03-06 19:10:00,32.2,27.3,30.25,West,268,7.0,7.0,82,0.00,,FEW070,0.00,VWS V14.01,2013-03-07 01:10:00,
2013-03-06 19:13:00,32.4,27.5,30.24,WNW,292,5.0,5.0,82,0.00,,OVC023,0.00,VWS V14.01,2013-03-07 01:13:00,
2013-03-06 19:15:00,32.2,27.6,30.25,West,278,3.0,8.0,83,0.00,,FEW070,0.00,VWS V14.01,2013-03-07 01:15:00,
2013-03-06 19:19:00,32.3,27.4,30.24,WNW,290,0.0,9.0,82,0.00,,OVC023,0.00,VWS V14.01,2013-03-07 01:19:00,
2013-03-06 19:20:00,32.1,27.2,30.25,West,279,7.0,8.0,82,0.00,,FEW070,0.00,VWS V14.01,2013-03-07 01:20:00,
2013-03-06 19:24:00,32.3,27.4,30.24,WNW,284,1.0,10.0,82,0.00,,OVC023,0.00,VWS V14.01,2013-03-07 01:24:00,
2013-03-06 19:25:00,32.1,27.2,30.25,WNW,292,2.0,7.0,82,0.00,,FEW070,0.00,VWS V14.01,2013-03-07 01:25:00,
2013-03-06 19:29:00,32.4,27.5,30.24,WNW,295,5.0,7.0,82,0.00,,OVC023,0.00,VWS V14.01,2013-03-07 01:29:00,
2013-03-06 19:30:00,32.1,27.5,30.25,WNW,296,1.0,7.0,83,0.00,,FEW070,0.00,VWS V14.01,2013-03-07 01:30:00,
2013-03-06 19:34:00,32.4,27.8,30.24,West,281,4.0,8.0,83,0.00,,OVC023,0.00,VWS V14.01,2013-03-07 01:34:00,
2013-03-06 19:35:00,32.2,27.6,30.25,WNW,283,2.0,6.0,83,0.00,,FEW070,0.00,VWS V14.01,2013-03-07 01:35:00,
2013-03-06 19:39:00,32.3,27.4,30.24,WNW,284,2.0,7.0,82,0.00,,OVC023,0.00,VWS V14.01,2013-03-07 01:39:00,
2013-03-06 19:40:00,32.1,27.2,30.25,WNW,282,1.0,6.0,82,0.00,,FEW070,0.00,VWS V14.01,2013-03-07 01:40:00,
2013-03-06 19:44:00,32.3,27.4,30.25,WNW,292,6.0,9.0,82,0.00,,OVC023,0.00,VWS V14.01,2013-03-07 01:44:00,
2013-03-06 19:45:00,32.1,27.2,30.25,WNW,299,0.0,4.0,82,0.00,,FEW070,0.00,VWS V14.01,2013-03-07 01:45:00,
2013-03-06 19:49:00,32.3,27.4,30.25,West,281,2.0,8.0,82,0.00,,OVC023,0.00,VWS V14.01,2013-03-07 01:49:00,
2013-03-06 19:50:00,32.1,27.2,30.25,WNW,290,1.0,5.0,82,0.00,,FEW070,0.00,VWS V14.01,2013-03-07 01:50:00,
2013-03-06 19:54:00,32.4,27.5,30.25,WNW,290,0.0,9.0,82,0.00,,OVC023,0.00,VWS V14.01,2013-03-07 01:54:00,
2013-03-06 19:55:00,32.1,27.2,30.25,WNW,290,1.0,5.0,82,0.00,,FEW070,0.00,VWS V14.01,2013-03-07 01:55:00,
2013-03-06 19:59:00,32.3,27.4,30.25,WNW,288,0.0,7.0,82,0.00,,OVC023,0.00,VWS V14.01,2013-03-07 01:59:00,
2013-03-06 20:00:00,32.1,27.2,30.25,NW,304,1.0,6.0,82,0.00,,FEW070,0.00,VWS V14.01,2013-03-07 02:00:00,
2013-03-06 20:04:00,32.3,27.4,30.25,WNW,298,5.0,7.0,82,0.00,,OVC039,0.00,VWS V14.01,2013-03-07 02:04:00,
2013-03-06 20:05:00,32.1,27.2,30.25,West,275,0.0,4.0,82,0.00,,FEW070,0.00,VWS V14.01,2013-03-07 02:05:00,
2013-03-06 20:09:00,32.2,27.3,30.25,West,268,7.0,7.0,82,0.00,,OVC039,0.00,VWS V14.01,2013-03-07 02:09:00,
2013-03-06 20:10:00,32.1,27.2,30.25,WNW,293,1.0,6.0,82,0.00,,FEW070,0.00,VWS V14.01,2013-03-07 02:10:00,
2013-03-06 20:14:00,32.2,27.6,30.25,West,278,3.0,8.0,83,0.00,,OVC039,0.00,VWS V14.01,2013-03-07 02:14:00,
2013-03-06 20:15:00,32.1,27.2,30.25,WNW,284,1.0,6.0,82,0.00,,FEW070,0.00,VWS V14.01,2013-03-07 02:15:00,
2013-03-06 20:19:00,32.1,27.2,30.25,West,279,7.0,8.0,82,0.00,,OVC039,0.00,VWS V14.01,2013-03-07 02:19:00,
2013-03-06 20:20:00,32.1,26.9,30.25,WNW,293,4.0,8.0,81,0.00,,FEW070,0.00,VWS V14.01,2013-03-07 02:20:00,
2013-03-06 20:24:00,32.1,27.2,30.25,WNW,292,0.0,7.0,82,0.00,,OVC039,0.00,VWS V14.01,2013-03-07 02:24:00,
2013-03-06 20:25:00,32.1,26.9,30.25,West,273,1.0,7.0,81,0.00,,FEW070,0.00,VWS V14.01,2013-03-07 02:25:00,
2013-03-06 20:29:00,32.1,27.5,30.25,WNW,296,1.0,7.0,83,0.00,,OVC039,0.00,VWS V14.01,2013-03-07 02:29:00,
2013-03-06 20:30:00,32.0,26.8,30.25,West,269,0.0,6.0,81,0.00,,FEW070,0.00,VWS V14.01,2013-03-07 02:30:00,
2013-03-06 20:34:00,32.2,27.6,30.25,WNW,283,1.0,6.0,83,0.00,,OVC039,0.00,VWS V14.01,2013-03-07 02:34:00,
2013-03-06 20:35:00,32.0,26.8,30.25,WNW,292,6.0,6.0,81,0.00,,FEW070,0.00,VWS V14.01,2013-03-07 02:35:00,
2013-03-06 20:39:00,32.1,27.2,30.25,WNW,283,2.0,6.0,82,0.00,,OVC039,0.00,VWS V14.01,2013-03-07 02:39:00,
2013-03-06 20:40:00,32.0,26.8,30.25,NW,306,2.0,7.0,81,0.00,,FEW070,0.00,VWS V14.01,2013-03-07 02:40:00,
2013-03-06 20:45:00,32.1,27.2,30.25,WNW,299,0.0,4.0,82,0.00,,OVC039,0.00,VWS V14.01,2013-03-07 02:45:00,
2013-03-06 20:50:00,32.2,27.3,30.25,WNW,290,0.0,5.0,82,0.00,,OVC039,0.00,VWS V14.01,2013-03-07 02:50:00,
2013-03-06 20:55:00,32.1,27.2,30.25,WNW,290,1.0,5.0,82,0.00,,OVC039,0.00,VWS V14.01,2013-03-07 02:55:00,
2013-03-06 21:00:00,32.1,27.2,30.25,WNW,300,1.0,6.0,82,0.00,,OVC039,0.00,VWS V14.01,2013-03-07 03:00:00,
2013-03-06 21:05:00,32.1,27.2,30.25,West,279,6.0,6.0,82,0.00,,OVC041,0.00,VWS V14.01,2013-03-07 03:05:00,
2013-03-06 21:10:00,32.1,27.2,30.25,West,262,4.0,5.0,82,0.00,,OVC041,0.00,VWS V14.01,2013-03-07 03:10:00,
2013-03-06 21:15:00,32.1,27.2,30.25,West,266,6.0,6.0,82,0.00,,OVC041,0.00,VWS V14.01,2013-03-07 03:15:00,
2013-03-06 21:20:00,32.1,26.9,30.25,WNW,294,7.0,8.0,81,0.00,,OVC041,0.00,VWS V14.01,2013-03-07 03:20:00,
2013-03-06 21:25:00,32.1,26.9,30.25,WNW,289,1.0,7.0,81,0.00,,OVC041,0.00,VWS V14.01,2013-03-07 03:25:00,
2013-03-06 21:30:00,32.0,26.8,30.25,West,273,1.0,6.0,81,0.00,,OVC041,0.00,VWS V14.01,2013-03-07 03:30:00,
2013-03-06 21:35:00,32.0,26.8,30.25,WNW,286,4.0,6.0,81,0.00,,OVC041,0.00,VWS V14.01,2013-03-07 03:35:00,
2013-03-06 21:40:00,32.0,26.8,30.25,NW,309,3.0,7.0,81,0.00,,OVC041,0.00,VWS V14.01,2013-03-07 03:40:00,
2013-03-06 21:45:00,32.0,26.8,30.25,West,259,5.0,6.0,81,0.00,,OVC041,0.00,VWS V14.01,2013-03-07 03:45:00,
2013-03-06 21:50:00,31.5,25.8,30.25,West,280,2.0,7.0,79,0.00,,FEW070,0.00,VWS V14.01,2013-03-07 03:50:00,
2013-03-06 21:51:00,31.9,26.7,30.25,WNW,292,1.0,7.0,81,0.00,,OVC041,0.00,VWS V14.01,2013-03-07 03:51:00,
2013-03-06 21:55:00,31.5,25.8,30.25,WNW,285,1.0,7.0,79,0.00,,FEW070,0.00,VWS V14.01,2013-03-07 03:55:00,
2013-03-06 21:56:00,31.9,27.0,30.25,WNW,293,2.0,7.0,82,0.00,,OVC041,0.00,VWS V14.01,2013-03-07 03:56:00,
2013-03-06 22:00:00,31.5,26.0,30.25,WNW,286,2.0,7.0,80,0.00,,FEW070,0.00,VWS V14.01,2013-03-07 04:00:00,
2013-03-06 22:01:00,31.8,26.6,30.25,WNW,296,3.0,7.0,81,0.00,,OVC041,0.00,VWS V14.01,2013-03-07 04:01:00,
2013-03-06 22:05:00,31.5,25.8,30.25,WNW,293,2.0,3.0,79,0.00,,FEW070,0.00,VWS V14.01,2013-03-07 04:05:00,
2013-03-06 22:06:00,31.8,26.4,30.25,WNW,300,1.0,8.0,80,0.00,,OVC041,0.00,VWS V14.01,2013-03-07 04:06:00,
2013-03-06 22:10:00,31.3,25.2,30.25,WNW,296,3.0,7.0,78,0.00,,FEW070,0.00,VWS V14.01,2013-03-07 04:10:00,
2013-03-06 22:11:00,31.8,26.4,30.25,WNW,298,7.0,9.0,80,0.00,,OVC041,0.00,VWS V14.01,2013-03-07 04:11:00,
2013-03-06 22:15:00,31.3,25.6,30.25,WNW,290,1.0,6.0,79,0.00,,FEW070,0.00,VWS V14.01,2013-03-07 04:15:00,
2013-03-06 22:16:00,31.8,26.6,30.25,WNW,302,1.0,8.0,81,0.00,,OVC041,0.00,VWS V14.01,2013-03-07 04:16:00,
2013-03-06 22:20:00,31.3,25.6,30.25,WNW,297,6.0,6.0,79,0.00,,FEW070,0.00,VWS V14.01,2013-03-07 04:20:00,
2013-03-06 22:21:00,31.7,26.2,30.25,WNW,301,2.0,6.0,80,0.00,,OVC041,0.00,VWS V14.01,2013-03-07 04:21:00,
2013-03-06 22:25:00,31.3,25.6,30.25,WNW,291,5.0,5.0,79,0.00,,FEW070,0.00,VWS V14.01,2013-03-07 04:25:00,
2013-03-06 22:26:00,31.6,26.1,30.25,West,280,1.0,8.0,80,0.00,,OVC041,0.00,VWS V14.01,2013-03-07 04:26:00,
2013-03-06 22:30:00,31.3,25.2,30.25,WNW,303,6.0,6.0,78,0.00,,FEW070,0.00,VWS V14.01,2013-03-07 04:30:00,
2013-03-06 22:31:00,31.6,25.9,30.25,WNW,296,5.0,9.0,79,0.00,,OVC041,0.00,VWS V14.01,2013-03-07 04:31:00,
2013-03-06 22:35:00,31.2,25.1,30.25,WNW,289,1.0,5.0,78,0.00,,FEW070,0.00,VWS V14.01,2013-03-07 04:35:00,
2013-03-06 22:36:00,31.6,25.9,30.25,West,279,1.0,8.0,79,0.00,,OVC041,0.00,VWS V14.01,2013-03-07 04:36:00,
2013-03-06 22:40:00,31.2,25.1,30.25,NW,309,7.0,8.0,78,0.00,,FEW070,0.00,VWS V14.01,2013-03-07 04:40:00,
2013-03-06 22:41:00,31.6,25.9,30.25,WNW,289,2.0,8.0,79,0.00,,OVC041,0.00,VWS V14.01,2013-03-07 04:41:00,
2013-03-06 22:45:00,31.2,25.1,30.25,WNW,291,5.0,6.0,78,0.00,,FEW070,0.00,VWS V14.01,2013-03-07 04:45:00,
2013-03-06 22:46:00,31.6,25.9,30.25,NW,311,2.0,7.0,79,0.00,,OVC041,0.00,VWS V14.01,2013-03-07 04:46:00,
2013-03-06 22:50:00,31.1,25.1,30.25,WNW,296,4.0,10.0,78,0.00,,FEW070,0.00,VWS V14.01,2013-03-07 04:50:00,
2013-03-06 22:51:00,31.5,25.8,30.25,WNW,299,1.0,7.0,79,0.00,,OVC041,0.00,VWS V14.01,2013-03-07 04:51:00,
2013-03-06 22:55:00,31.0,24.6,30.25,WNW,301,2.0,6.0,77,0.00,,FEW070,0.00,VWS V14.01,2013-03-07 04:55:00,
2013-03-06 22:56:00,31.5,26.0,30.25,West,267,5.0,7.0,80,0.00,,OVC041,0.00,VWS V14.01,2013-03-07 04:56:00,
2013-03-06 23:00:00,31.0,24.6,30.25,WNW,302,1.0,7.0,77,0.00,,FEW070,0.00,VWS V14.01,2013-03-07 05:00:00,
2013-03-06 23:01:00,31.5,25.8,30.25,West,261,1.0,7.0,79,0.00,,OVC041,0.00,VWS V14.01,2013-03-07 05:01:00,
2013-03-06 23:02:00,31.5,25.8,30.25,West,261,0.0,5.0,79,0.00,,OVC041,0.00,VWS V14.01,2013-03-07 05:02:00,
2013-03-06 23:04:00,31.5,25.8,30.25,WNW,293,2.0,3.0,79,0.00,,OVC041,0.00,VWS V14.01,2013-03-07 05:04:00,
2013-03-06 23:05:00,31.0,25.0,30.25,WNW,296,6.0,9.0,78,0.00,,FEW070,0.00,VWS V14.01,2013-03-07 05:05:00,
2013-03-06 23:09:00,31.3,25.2,30.25,WNW,296,3.0,7.0,78,0.00,,OVC041,0.00,VWS V14.01,2013-03-07 05:09:00,
2013-03-06 23:10:00,30.9,24.5,30.25,WNW,299,5.0,7.0,77,0.00,,FEW070,0.00,VWS V14.01,2013-03-07 05:10:00,
2013-03-06 23:14:00,31.3,25.6,30.25,WNW,290,1.0,6.0,79,0.00,,OVC041,0.00,VWS V14.01,2013-03-07 05:14:00,
2013-03-06 23:15:00,30.8,24.5,30.25,WNW,294,7.0,9.0,77,0.00,,FEW070,0.00,VWS V14.01,2013-03-07 05:15:00,
2013-03-06 23:19:00,31.3,25.6,30.25,WNW,297,6.0,6.0,79,0.00,,OVC041,0.00,VWS V14.01,2013-03-07 05:19:00,
2013-03-06 23:20:00,30.8,24.5,30.25,WNW,289,0.0,10.0,77,0.00,,FEW070,0.00,VWS V14.01,2013-03-07 05:20:00,
2013-03-06 23:24:00,31.3,25.6,30.25,WNW,290,5.0,5.0,79,0.00,,OVC041,0.00,VWS V14.01,2013-03-07 05:24:00,
2013-03-06 23:25:00,30.8,24.5,30.25,WSW,257,5.0,9.0,77,0.00,,FEW070,0.00,VWS V14.01,2013-03-07 05:25:00,
2013-03-06 23:29:00,31.3,25.2,30.25,WNW,303,6.0,6.0,78,0.00,,OVC041,0.00,VWS V14.01,2013-03-07 05:29:00,
2013-03-06 23:30:00,30.8,24.5,30.26,WNW,282,2.0,9.0,77,0.00,,FEW070,0.00,VWS V14.01,2013-03-07 05:30:00,
2013-03-06 23:34:00,31.2,25.1,30.25,WNW,289,1.0,5.0,78,0.00,,OVC041,0.00,VWS V14.01,2013-03-07 05:34:00,
2013-03-06 23:35:00,30.7,24.4,30.26,WNW,284,3.0,8.0,77,0.00,,FEW070,0.00,VWS V14.01,2013-03-07 05:35:00,
2013-03-06 23:39:00,31.2,25.1,30.25,NW,309,7.0,8.0,78,0.00,,OVC041,0.00,VWS V14.01,2013-03-07 05:39:00,
2013-03-06 23:40:00,30.6,24.3,30.26,WNW,296,4.0,8.0,77,0.00,,FEW070,0.00,VWS V14.01,2013-03-07 05:40:00,
2013-03-06 23:44:00,31.2,25.1,30.25,WNW,291,5.0,6.0,78,0.00,,OVC041,0.00,VWS V14.01,2013-03-07 05:44:00,
2013-03-06 23:45:00,30.6,24.3,30.26,NW,308,2.0,9.0,77,0.00,,FEW070,0.00,VWS V14.01,2013-03-07 05:45:00,
2013-03-06 23:49:00,31.1,25.0,30.25,WNW,296,4.0,10.0,78,0.00,,OVC041,0.00,VWS V14.01,2013-03-07 05:49:00,
2013-03-06 23:50:00,30.5,23.9,30.26,NNW,328,6.0,11.0,76,0.00,,FEW070,0.00,VWS V14.01,2013-03-07 05:50:00,
2013-03-06 23:54:00,31.0,24.6,30.25,WNW,301,2.0,6.0,77,0.00,,OVC041,0.00,VWS V14.01,2013-03-07 05:54:00,
2013-03-06 23:55:00,30.5,23.9,30.26,WNW,290,8.0,10.0,76,0.00,,FEW070,0.00,VWS V14.01,2013-03-07 05:55:00,
2013-03-06 23:59:00,31.0,24.6,30.25,WNW,302,1.0,7.0,77,0.00,,OVC041,0.00,VWS V14.01,2013-03-07 05:59:00,